Time,TemperatureF,DewpointF,PressureIn,WindDirection,WindDirectionDegrees,WindSpeedMPH,WindSpeedGustMPH,Humidity,HourlyPrecipIn,Conditions,Clouds,dailyrainin,SoftwareType,DateUTC
2013-05-22 00:00:00,76.0,40.0,-100.00,North,-999,-999.0,-999.0,28,0.00,,,-99.99,,2013-05-22 07:00:00,
2013-05-22 00:52:00,76.0,40.0,-100.00,North,-999,-999.0,-999.0,28,0.00,,,-99.99,,2013-05-22 07:52:00,
2013-05-22 01:00:00,72.0,42.0,-100.00,North,-999,-999.0,-999.0,34,0.00,,,-99.99,,2013-05-22 08:00:00,
2013-05-22 01:52:00,72.0,42.0,-100.00,North,-999,-999.0,-999.0,34,0.00,,,-99.99,,2013-05-22 08:52:00,
2013-05-22 02:00:00,69.0,40.0,-100.00,North,-999,-999.0,-999.0,35,0.00,,,-99.99,,2013-05-22 09:00:00,
2013-05-22 02:53:00,69.0,40.0,-100.00,North,-999,-999.0,-999.0,35,0.00,,,-99.99,,2013-05-22 09:53:00,
2013-05-22 03:00:00,66.0,41.0,-100.00,North,-999,-999.0,-999.0,39,0.00,,,0.00,,2013-05-22 10:00:00,
2013-05-22 03:52:00,66.0,41.0,-100.00,North,-999,-999.0,-999.0,39,0.00,,,0.00,,2013-05-22 10:52:00,
2013-05-22 04:00:00,63.0,39.0,-100.00,North,-999,-999.0,-999.0,42,0.00,,,0.00,,2013-05-22 11:00:00,
2013-05-22 04:52:00,63.0,39.0,-100.00,North,-999,-999.0,-999.0,42,0.00,,,0.00,,2013-05-22 11:52:00,
2013-05-22 05:00:00,61.0,39.0,-100.00,North,-999,-999.0,-999.0,44,0.00,,,0.00,,2013-05-22 12:00:00,
2013-05-22 05:52:00,61.0,39.0,-100.00,North,-999,-999.0,-999.0,44,0.00,,,0.00,,2013-05-22 12:52:00,
2013-05-22 06:00:00,61.0,41.0,-100.00,North,-999,-999.0,-999.0,48,0.00,,,0.00,,2013-05-22 13:00:00,
2013-05-22 06:52:00,61.0,41.0,-100.00,North,-999,-999.0,-999.0,48,0.00,,,0.00,,2013-05-22 13:52:00,
2013-05-22 07:00:00,60.0,41.0,-100.00,North,-999,-999.0,-999.0,49,0.00,,,0.00,,2013-05-22 14:00:00,
2013-05-22 07:52:00,60.0,41.0,-100.00,North,-999,-999.0,-999.0,49,0.00,,,0.00,,2013-05-22 14:52:00,
2013-05-22 08:00:00,64.0,42.0,-100.00,North,-999,-999.0,-999.0,44,0.00,,,0.00,,2013-05-22 15:00:00,
2013-05-22 08:53:00,64.0,42.0,-100.00,North,-999,-999.0,-999.0,44,0.00,,,0.00,,2013-05-22 15:53:00,
2013-05-22 09:00:00,65.0,42.0,-100.00,North,-999,-999.0,-999.0,42,0.00,,,0.00,,2013-05-22 16:00:00,
2013-05-22 09:52:00,65.0,42.0,-100.00,North,-999,-999.0,-999.0,42,0.00,,,0.00,,2013-05-22 16:52:00,
2013-05-22 10:00:00,65.0,41.0,-100.00,North,-999,-999.0,-999.0,40,0.00,,,0.00,,2013-05-22 17:00:00,
2013-05-22 10:53:00,65.0,41.0,-100.00,North,-999,-999.0,-999.0,40,0.00,,,0.00,,2013-05-22 17:53:00,
2013-05-22 11:00:00,68.0,41.0,-100.00,North,-999,-999.0,-999.0,38,0.00,,,0.00,,2013-05-22 18:00:00,
2013-05-22 11:52:00,68.0,41.0,-100.00,North,-999,-999.0,-999.0,38,0.00,,,0.00,,2013-05-22 18:52:00,
2013-05-22 12:00:00,70.0,39.0,-100.00,North,-999,-999.0,-999.0,32,0.00,,,0.00,,2013-05-22 19:00:00,
2013-05-22 12:52:00,70.0,39.0,-100.00,North,-999,-999.0,-999.0,32,0.00,,,0.00,,2013-05-22 19:52:00,
2013-05-22 13:00:00,71.0,38.0,-100.00,North,-999,-999.0,-999.0,30,0.00,,,0.00,,2013-05-22 20:00:00,
2013-05-22 13:52:00,71.0,38.0,-100.00,North,-999,-999.0,-999.0,30,0.00,,,0.00,,2013-05-22 20:52:00,
2013-05-22 14:00:00,74.0,38.0,-100.00,North,-999,-999.0,-999.0,27,0.00,,,0.00,,2013-05-22 21:00:00,
2013-05-22 14:53:00,74.0,38.0,-100.00,North,-999,-999.0,-999.0,27,0.00,,,0.00,,2013-05-22 21:53:00,
2013-05-22 15:00:00,77.0,39.0,-100.00,North,-999,-999.0,-999.0,26,0.00,,,0.00,,2013-05-22 22:00:00,
2013-05-22 15:52:00,77.0,39.0,-100.00,North,-999,-999.0,-999.0,26,0.00,,,0.00,,2013-05-22 22:52:00,
2013-05-22 16:00:00,77.0,37.0,-100.00,North,-999,-999.0,-999.0,24,0.00,,,0.00,,2013-05-22 23:00:00,
2013-05-22 16:52:00,77.0,37.0,-100.00,North,-999,-999.0,-999.0,24,0.00,,,0.00,,2013-05-22 23:52:00,
2013-05-22 17:00:00,77.0,36.0,-100.00,North,-999,-999.0,-999.0,23,0.00,,,0.00,,2013-05-23 00:00:00,
2013-05-22 17:52:00,77.0,36.0,-100.00,North,-999,-999.0,-999.0,23,0.00,,,0.00,,2013-05-23 00:52:00,
2013-05-22 18:00:00,76.0,36.0,-100.00,North,-999,-999.0,-999.0,23,0.00,,,0.00,,2013-05-23 01:00:00,
2013-05-22 18:52:00,76.0,36.0,-100.00,North,-999,-999.0,-999.0,23,0.00,,,0.00,,2013-05-23 01:52:00,
2013-05-22 19:00:00,75.0,31.0,-100.00,North,-999,-999.0,-999.0,20,0.00,,,0.00,,2013-05-23 02:00:00,
2013-05-22 20:00:00,73.0,30.0,-100.00,North,-999,-999.0,-999.0,20,0.00,,,0.00,,2013-05-23 03:00:00,
2013-05-22 20:53:00,73.0,30.0,-100.00,North,-999,-999.0,-999.0,20,0.00,,,0.00,,2013-05-23 03:53:00,
2013-05-22 21:00:00,71.0,25.0,-100.00,North,-999,-999.0,-999.0,18,0.00,,,0.00,,2013-05-23 04:00:00,
2013-05-22 21:52:00,71.0,25.0,-100.00,North,-999,-999.0,-999.0,18,0.00,,,0.00,,2013-05-23 04:52:00,
2013-05-22 22:00:00,69.0,19.0,-100.00,North,-999,-999.0,-999.0,15,-99.99,,,0.00,,2013-05-23 05:00:00,
2013-05-22 22:52:00,69.0,19.0,-100.00,North,-999,-999.0,-999.0,15,-99.99,,,0.00,,2013-05-23 05:52:00,
2013-05-22 23:00:00,68.0,19.0,-100.00,North,-999,-999.0,-999.0,15,-99.99,,,0.00,,2013-05-23 06:00:00,
2013-05-22 23:52:00,68.0,19.0,-100.00,North,-999,-999.0,-999.0,15,-99.99,,,0.00,,2013-05-23 06:52:00,